Time;durP1;ratioP1;P1;durP2;ratioP2;P2;SDS_P1;SDS_P2;PMS_P1;PMS_P2;Temp;Humidity;BMP_temperature;BMP_pressure;BME280_temperature;BME280_humidity;BME280_pressure;Samples;Min_cycle;Max_cycle;Signal;HPM_P1;HPM_P2
2023/09/22 00:00:15;;;;;;;1.55;1.40;;;17.90;99.90;;;;;;2070493;28;20030;-73
2023/09/22 00:01:16;;;;;;;2.22;1.10;;;17.90;99.90;;;;;;2075696;28;20648;-73
2023/09/22 00:02:17;;;;;;;2.10;1.30;;;17.90;99.90;;;;;;2075182;28;20032;-73
2023/09/22 00:03:17;;;;;;;2.60;1.00;;;17.80;99.90;;;;;;2077775;28;20084;-72
2023/09/22 00:04:18;;;;;;;2.25;1.17;;;17.90;99.90;;;;;;2077080;28;20116;-72
2023/09/22 00:05:18;;;;;;;1.42;1.10;;;17.90;99.90;;;;;;2070313;28;20382;-72
2023/09/22 00:06:22;;;;;;;2.80;1.25;;;17.90;99.90;;;;;;2072021;28;20095;-73
2023/09/22 00:07:22;;;;;;;2.50;1.13;;;17.90;99.90;;;;;;2077836;28;20033;-73
2023/09/22 00:08:23;;;;;;;1.65;1.10;;;17.90;99.90;;;;;;2079983;28;20026;-72
2023/09/22 00:09:24;;;;;;;2.67;1.58;;;17.90;99.90;;;;;;2073270;28;20026;-72
2023/09/22 00:10:24;;;;;;;1.50;0.98;;;17.90;99.90;;;;;;2070904;28;20105;-72
2023/09/22 00:11:25;;;;;;;1.60;1.20;;;17.90;99.90;;;;;;2071073;28;20022;-73
2023/09/22 00:12:25;;;;;;;1.60;0.98;;;17.90;99.90;;;;;;2071861;28;20029;-73
2023/09/22 00:13:26;;;;;;;1.35;1.10;;;17.80;99.90;;;;;;2069662;28;20058;-72
2023/09/22 00:14:26;;;;;;;3.63;1.45;;;17.80;99.90;;;;;;2068942;28;20034;-72
2023/09/22 00:15:27;;;;;;;1.27;1.17;;;17.80;99.90;;;;;;2072793;28;20033;-74
2023/09/22 00:16:27;;;;;;;2.40;1.40;;;17.80;99.90;;;;;;2079357;28;20381;-73
2023/09/22 00:17:28;;;;;;;1.65;1.20;;;17.80;99.90;;;;;;2079668;28;20033;-72
2023/09/22 00:18:29;;;;;;;4.45;1.27;;;17.80;99.90;;;;;;2079384;28;20025;-72
2023/09/22 00:19:32;;;;;;;2.28;1.30;;;17.80;99.90;;;;;;2070604;28;20157;-73
2023/09/22 00:20:33;;;;;;;2.70;1.77;;;17.80;99.90;;;;;;2070421;28;20034;-73
2023/09/22 00:21:34;;;;;;;2.67;1.30;;;17.80;99.90;;;;;;2078476;28;20063;-73
2023/09/22 00:22:35;;;;;;;2.70;1.60;;;17.80;99.90;;;;;;2076801;28;20132;-73
2023/09/22 00:23:36;;;;;;;2.15;1.50;;;17.80;99.90;;;;;;2076559;28;20034;-73
2023/09/22 00:24:36;;;;;;;1.60;1.38;;;17.80;99.90;;;;;;2079874;28;20033;-73
2023/09/22 00:25:37;;;;;;;1.65;1.33;;;17.80;99.90;;;;;;2078251;28;20040;-73
2023/09/22 00:26:37;;;;;;;1.58;1.48;;;17.70;99.90;;;;;;2069176;28;20466;-73
2023/09/22 00:27:38;;;;;;;2.83;1.30;;;17.70;99.90;;;;;;2069102;28;20053;-73
2023/09/22 00:28:39;;;;;;;2.60;1.40;;;17.70;99.90;;;;;;2072648;28;20460;-72
2023/09/22 00:29:39;;;;;;;2.13;1.30;;;17.70;99.90;;;;;;2070761;28;20137;-73
2023/09/22 00:30:40;;;;;;;2.40;1.48;;;17.70;99.90;;;;;;2068240;28;20497;-73
2023/09/22 00:31:40;;;;;;;1.77;1.33;;;17.70;99.90;;;;;;2068538;28;20098;-73
2023/09/22 00:32:41;;;;;;;3.35;1.77;;;17.60;99.90;;;;;;2077489;28;20120;-73
2023/09/22 00:33:41;;;;;;;1.67;1.30;;;17.70;99.90;;;;;;2078779;28;20527;-73
2023/09/22 00:34:42;;;;;;;2.40;1.20;;;17.60;99.90;;;;;;2077597;28;20033;-72
2023/09/22 00:35:42;;;;;;;4.32;2.25;;;17.60;99.90;;;;;;2079218;28;20025;-73
2023/09/22 00:36:43;;;;;;;2.78;1.67;;;17.60;99.90;;;;;;2079938;28;20080;-72
2023/09/22 00:37:44;;;;;;;2.08;1.40;;;17.60;99.90;;;;;;2078782;28;20021;-73
2023/09/22 00:38:45;;;;;;;1.55;1.42;;;17.60;99.90;;;;;;2079428;28;20053;-73
2023/09/22 00:39:45;;;;;;;1.80;1.40;;;17.60;99.90;;;;;;2068494;28;20461;-73
2023/09/22 00:40:46;;;;;;;2.47;1.60;;;17.60;99.90;;;;;;2067857;28;20030;-73
2023/09/22 00:41:46;;;;;;;3.38;1.38;;;17.60;99.90;;;;;;2078403;28;20018;-73
2023/09/22 00:42:47;;;;;;;2.33;1.38;;;17.60;99.90;;;;;;2079086;28;20033;-73
2023/09/22 00:43:48;;;;;;;2.95;1.50;;;17.60;99.90;;;;;;2079315;28;20108;-72
2023/09/22 00:44:48;;;;;;;1.92;1.40;;;17.60;99.90;;;;;;2078328;28;20375;-72
2023/09/22 00:45:52;;;;;;;3.80;1.30;;;17.60;99.90;;;;;;2078300;28;20017;-72
2023/09/22 00:46:52;;;;;;;2.00;1.42;;;17.50;99.90;;;;;;2079893;28;20087;-72
2023/09/22 00:47:53;;;;;;;1.50;1.40;;;17.50;99.90;;;;;;2079101;28;20098;-73
2023/09/22 00:48:56;;;;;;;1.92;1.48;;;17.50;99.90;;;;;;2078894;28;20533;-73
2023/09/22 00:49:57;;;;;;;2.25;1.73;;;17.50;99.90;;;;;;2081252;28;20092;-73
2023/09/22 00:50:58;;;;;;;3.10;1.55;;;17.50;99.90;;;;;;2078484;28;20026;-73
2023/09/22 00:51:59;;;;;;;2.60;1.27;;;17.50;99.90;;;;;;2079506;28;20040;-73
2023/09/22 00:52:59;;;;;;;1.40;1.30;;;17.50;99.90;;;;;;2071941;28;20033;-74
2023/09/22 00:54:01;;;;;;;1.73;1.50;;;17.50;99.90;;;;;;2069877;28;20037;-73
2023/09/22 00:55:02;;;;;;;2.05;1.83;;;17.50;99.90;;;;;;2080413;28;20034;-73
2023/09/22 00:56:03;;;;;;;1.63;1.50;;;17.50;99.90;;;;;;2079654;28;20483;-73
2023/09/22 00:57:04;;;;;;;1.92;1.75;;;17.50;99.90;;;;;;2073047;28;20025;-74
2023/09/22 00:58:05;;;;;;;2.60;1.58;;;17.50;99.90;;;;;;2075408;28;20125;-73
2023/09/22 00:59:07;;;;;;;2.38;1.67;;;17.50;99.90;;;;;;2077589;28;20025;-73
2023/09/22 01:00:09;;;;;;;3.35;1.60;;;17.50;99.90;;;;;;2071244;28;20137;-74
2023/09/22 01:01:10;;;;;;;1.83;1.58;;;17.50;99.90;;;;;;2067758;28;20145;-74
2023/09/22 01:02:11;;;;;;;3.60;1.95;;;17.50;99.90;;;;;;2069153;28;20034;-74
2023/09/22 01:03:12;;;;;;;2.90;1.58;;;17.50;99.90;;;;;;2070314;28;20018;-74
2023/09/22 01:04:13;;;;;;;2.30;2.03;;;17.50;99.90;;;;;;2079913;28;20103;-74
2023/09/22 01:05:13;;;;;;;2.67;2.22;;;17.50;99.90;;;;;;2072143;28;20507;-74
2023/09/22 01:06:14;;;;;;;2.28;2.08;;;17.50;99.90;;;;;;2070586;28;20061;-74
2023/09/22 01:07:15;;;;;;;2.75;1.70;;;17.50;99.90;;;;;;2069364;28;20031;-73
2023/09/22 01:08:16;;;;;;;1.80;1.65;;;17.50;99.90;;;;;;2071020;28;20152;-74
2023/09/22 01:09:17;;;;;;;2.15;1.55;;;17.40;99.90;;;;;;2069870;28;20030;-74
2023/09/22 01:10:17;;;;;;;1.70;1.60;;;17.40;99.90;;;;;;2071381;28;20539;-73
2023/09/22 01:11:18;;;;;;;1.65;1.50;;;17.40;99.90;;;;;;2078596;28;20113;-74
2023/09/22 01:12:18;;;;;;;2.88;1.90;;;17.40;99.90;;;;;;2076601;28;20042;-74
2023/09/22 01:13:19;;;;;;;2.05;1.80;;;17.40;99.90;;;;;;2079050;28;20389;-74
2023/09/22 01:14:19;;;;;;;2.80;1.63;;;17.40;99.90;;;;;;2079175;28;20026;-74
2023/09/22 01:15:20;;;;;;;2.13;1.50;;;17.40;99.90;;;;;;2080651;28;20030;-74
2023/09/22 01:16:21;;;;;;;2.15;1.58;;;17.40;99.90;;;;;;2077636;28;20439;-73
2023/09/22 01:17:23;;;;;;;2.08;1.50;;;17.40;99.90;;;;;;2078414;28;20064;-73
2023/09/22 01:18:26;;;;;;;2.35;1.55;;;17.40;99.90;;;;;;2076367;28;20034;-73
2023/09/22 01:19:27;;;;;;;1.85;1.67;;;17.40;99.90;;;;;;2075790;28;20021;-74
2023/09/22 01:20:27;;;;;;;3.63;2.10;;;17.40;99.90;;;;;;2077645;28;20032;-73
2023/09/22 01:21:31;;;;;;;4.30;1.80;;;17.40;99.90;;;;;;2078226;28;20092;-73
2023/09/22 01:22:33;;;;;;;1.83;1.60;;;17.40;99.90;;;;;;2079327;28;20029;-73
2023/09/22 01:23:35;;;;;;;2.08;1.80;;;17.40;99.90;;;;;;2077088;28;20018;-73
2023/09/22 01:24:35;;;;;;;1.95;1.50;;;17.40;99.90;;;;;;2077121;28;20043;-73
2023/09/22 01:25:36;;;;;;;2.33;1.65;;;17.40;99.90;;;;;;2077190;28;20029;-74
2023/09/22 01:26:38;;;;;;;2.22;1.50;;;17.40;99.90;;;;;;2075984;28;20028;-73
2023/09/22 01:27:39;;;;;;;3.38;1.58;;;17.40;99.90;;;;;;2078731;28;20033;-74
2023/09/22 01:28:39;;;;;;;3.03;1.60;;;17.40;99.90;;;;;;2077732;28;20083;-74
2023/09/22 01:29:40;;;;;;;2.25;1.48;;;17.40;99.90;;;;;;2076419;28;20037;-73
2023/09/22 01:30:41;;;;;;;2.60;1.52;;;17.40;99.90;;;;;;2069903;28;20022;-73
2023/09/22 01:31:42;;;;;;;2.83;1.55;;;17.40;99.90;;;;;;2069951;28;20409;-73
2023/09/22 01:32:42;;;;;;;2.83;1.70;;;17.40;99.90;;;;;;2077346;28;20030;-73
2023/09/22 01:33:45;;;;;;;2.63;1.30;;;17.40;99.90;;;;;;2078896;28;20021;-74
2023/09/22 01:34:46;;;;;;;2.35;1.40;;;17.40;99.90;;;;;;2076902;28;20101;-73
2023/09/22 01:35:46;;;;;;;2.63;1.60;;;17.40;99.90;;;;;;2078333;28;20063;-73
2023/09/22 01:36:47;;;;;;;3.28;1.60;;;17.40;99.90;;;;;;2067700;28;20565;-73
2023/09/22 01:37:55;;;;;;;2.05;1.67;;;17.40;99.90;;;;;;2068425;28;20104;-73
2023/09/22 01:38:57;;;;;;;2.65;1.23;;;17.40;99.90;;;;;;2076413;28;20013;-73
2023/09/22 01:39:59;;;;;;;3.60;1.63;;;17.40;99.90;;;;;;2068669;28;20022;-73
2023/09/22 01:40:59;;;;;;;5.15;1.52;;;17.40;99.90;;;;;;2069069;28;20032;-73
2023/09/22 01:42:00;;;;;;;1.63;1.52;;;17.40;99.90;;;;;;2078340;28;20132;-73
2023/09/22 01:43:00;;;;;;;2.75;1.27;;;17.40;99.90;;;;;;2075979;28;20104;-73
2023/09/22 01:44:01;;;;;;;3.85;1.63;;;17.40;99.90;;;;;;2075946;28;20766;-73
2023/09/22 01:45:01;;;;;;;2.13;1.50;;;17.40;99.90;;;;;;2078213;28;20030;-73
2023/09/22 01:46:02;;;;;;;3.92;1.40;;;17.40;99.90;;;;;;2078887;28;20056;-73
2023/09/22 01:47:03;;;;;;;2.17;1.67;;;17.30;99.90;;;;;;2077455;28;20096;-73
2023/09/22 01:48:04;;;;;;;2.20;1.30;;;17.30;99.90;;;;;;2077034;28;20188;-73
2023/09/22 01:49:05;;;;;;;4.10;1.50;;;17.40;99.90;;;;;;2069563;28;20030;-73
2023/09/22 01:50:07;;;;;;;1.17;1.17;;;17.30;99.90;;;;;;2068878;28;20030;-73
2023/09/22 01:51:08;;;;;;;1.98;1.50;;;17.40;99.90;;;;;;2077947;28;20021;-73
2023/09/22 01:52:08;;;;;;;2.70;1.65;;;17.30;99.90;;;;;;2077102;28;20034;-73
2023/09/22 01:53:10;;;;;;;1.98;1.50;;;17.30;99.90;;;;;;2077393;28;20029;-74
2023/09/22 01:54:11;;;;;;;3.30;1.80;;;17.30;99.90;;;;;;2077774;28;20038;-73
2023/09/22 01:55:11;;;;;;;2.08;1.48;;;17.30;99.90;;;;;;2077487;28;20063;-73
2023/09/22 01:56:12;;;;;;;2.33;1.45;;;17.30;99.90;;;;;;2075752;28;20691;-73
2023/09/22 01:57:13;;;;;;;3.45;1.70;;;17.20;99.90;;;;;;2077463;28;20033;-74
2023/09/22 01:58:13;;;;;;;3.80;1.80;;;17.30;99.90;;;;;;2069886;28;20125;-73
2023/09/22 01:59:14;;;;;;;5.93;1.77;;;17.20;99.90;;;;;;2070877;28;20037;-73
2023/09/22 02:00:15;;;;;;;4.28;1.85;;;17.20;99.90;;;;;;2076231;28;20022;-73
2023/09/22 02:01:17;;;;;;;2.38;1.60;;;17.20;99.90;;;;;;2077801;28;20025;-73
2023/09/22 02:02:18;;;;;;;2.80;1.70;;;17.20;99.90;;;;;;2071600;28;20713;-73
2023/09/22 02:03:18;;;;;;;3.10;1.75;;;17.20;99.90;;;;;;2070326;28;20052;-73
2023/09/22 02:04:19;;;;;;;3.22;1.70;;;17.20;99.90;;;;;;2076920;28;20152;-73
2023/09/22 02:05:19;;;;;;;2.75;1.88;;;17.20;99.90;;;;;;2077322;28;20758;-74
2023/09/22 02:06:21;;;;;;;3.38;1.60;;;17.20;99.90;;;;;;2077141;28;20180;-73
2023/09/22 02:07:22;;;;;;;4.10;1.83;;;17.20;99.90;;;;;;2076811;28;20025;-73
2023/09/22 02:08:23;;;;;;;1.85;1.52;;;17.20;99.90;;;;;;2070001;28;20092;-73
2023/09/22 02:09:23;;;;;;;2.35;1.60;;;17.20;99.90;;;;;;2067789;28;20019;-73
2023/09/22 02:10:24;;;;;;;2.13;1.70;;;17.20;99.90;;;;;;2076595;28;20030;-73
2023/09/22 02:11:24;;;;;;;2.10;1.52;;;17.20;99.90;;;;;;2078158;28;20022;-73
2023/09/22 02:12:25;;;;;;;5.40;1.80;;;17.20;99.90;;;;;;2076927;28;20113;-73
2023/09/22 02:13:25;;;;;;;2.33;1.50;;;17.20;99.90;;;;;;2068666;28;20034;-73
2023/09/22 02:14:26;;;;;;;3.70;1.40;;;17.20;99.90;;;;;;2067179;28;20050;-73
2023/09/22 02:15:27;;;;;;;2.67;1.52;;;17.20;99.90;;;;;;2077579;28;20061;-73
2023/09/22 02:16:28;;;;;;;4.82;1.70;;;17.20;99.90;;;;;;2077943;28;20108;-73
2023/09/22 02:17:28;;;;;;;2.25;1.80;;;17.20;99.90;;;;;;2077277;28;20018;-73
2023/09/22 02:18:29;;;;;;;5.20;1.80;;;17.30;99.90;;;;;;2076502;28;20026;-73
2023/09/22 02:19:34;;;;;;;2.60;1.60;;;17.30;99.90;;;;;;2077184;28;20165;-73
2023/09/22 02:20:35;;;;;;;2.17;1.42;;;17.30;99.90;;;;;;2078348;28;20033;-73
2023/09/22 02:21:35;;;;;;;2.55;1.80;;;17.30;99.90;;;;;;2076561;28;20033;-73
2023/09/22 02:22:36;;;;;;;3.38;1.40;;;17.30;99.90;;;;;;2075154;28;20028;-73
2023/09/22 02:23:37;;;;;;;3.30;1.90;;;17.30;99.90;;;;;;2062808;28;20088;-73
2023/09/22 02:24:39;;;;;;;1.95;1.52;;;17.30;99.90;;;;;;2060063;28;20474;-73
2023/09/22 02:25:39;;;;;;;1.20;1.08;;;17.30;99.90;;;;;;2066961;28;20087;-73
2023/09/22 02:26:40;;;;;;;2.40;1.40;;;17.30;99.90;;;;;;2077055;28;20551;-73
2023/09/22 02:27:41;;;;;;;1.25;1.15;;;17.30;99.90;;;;;;2076027;28;20087;-73
2023/09/22 02:28:42;;;;;;;2.53;1.52;;;17.20;99.90;;;;;;2076834;28;20021;-73
2023/09/22 02:29:42;;;;;;;2.63;1.40;;;17.30;99.90;;;;;;2076550;28;20472;-73
2023/09/22 02:30:43;;;;;;;1.88;1.40;;;17.30;99.90;;;;;;2077226;28;20520;-73
2023/09/22 02:31:43;;;;;;;1.83;1.30;;;17.30;99.90;;;;;;2076220;28;20025;-73
2023/09/22 02:32:48;;;;;;;3.22;1.50;;;17.30;99.90;;;;;;2078009;28;20041;-73
2023/09/22 02:33:49;;;;;;;1.45;1.35;;;17.30;99.90;;;;;;2077543;28;20522;-73
2023/09/22 02:34:50;;;;;;;3.40;1.80;;;17.20;99.90;;;;;;2077260;28;21434;-73
2023/09/22 02:35:50;;;;;;;5.63;1.50;;;17.30;99.90;;;;;;2068828;28;20148;-73
2023/09/22 02:36:51;;;;;;;1.75;1.10;;;17.30;99.90;;;;;;2070203;28;20033;-73
2023/09/22 02:37:52;;;;;;;3.72;1.42;;;17.30;99.90;;;;;;2077260;28;20109;-73
2023/09/22 02:38:52;;;;;;;1.42;1.10;;;17.30;99.90;;;;;;2077835;28;20026;-73
2023/09/22 02:39:53;;;;;;;2.25;1.60;;;17.30;99.90;;;;;;2076516;28;20036;-73
2023/09/22 02:40:54;;;;;;;1.60;1.25;;;17.30;99.90;;;;;;2075312;28;20041;-73
2023/09/22 02:41:54;;;;;;;4.13;1.60;;;17.30;99.90;;;;;;2068151;28;20056;-73
2023/09/22 02:42:55;;;;;;;2.08;1.30;;;17.30;99.90;;;;;;2069602;28;20026;-73
2023/09/22 02:43:56;;;;;;;4.30;1.50;;;17.20;99.90;;;;;;2076204;28;20032;-73
2023/09/22 02:44:57;;;;;;;3.28;1.30;;;17.20;99.90;;;;;;2076214;28;20407;-73
2023/09/22 02:46:02;;;;;;;4.25;1.77;;;17.20;99.90;;;;;;2078486;28;20033;-73
2023/09/22 02:47:02;;;;;;;2.28;1.70;;;17.20;99.90;;;;;;2076856;28;20029;-73
2023/09/22 02:48:04;;;;;;;2.53;1.70;;;17.10;99.90;;;;;;2068223;28;20036;-73
2023/09/22 02:49:05;;;;;;;4.72;2.33;;;17.10;99.90;;;;;;2068105;28;20065;-73
2023/09/22 02:50:10;;;;;;;4.20;1.75;;;17.10;99.90;;;;;;2075668;28;20033;-73
2023/09/22 02:51:11;;;;;;;4.80;1.85;;;17.10;99.90;;;;;;2076121;28;20032;-73
2023/09/22 02:52:11;;;;;;;1.90;1.25;;;17.10;99.90;;;;;;2075792;28;20037;-73
2023/09/22 02:53:12;;;;;;;3.38;1.58;;;17.10;99.90;;;;;;2076731;28;20038;-73
2023/09/22 02:54:13;;;;;;;3.05;1.48;;;17.10;99.90;;;;;;2077862;28;20037;-73
2023/09/22 02:55:14;;;;;;;3.30;1.55;;;17.10;99.90;;;;;;2077348;28;20025;-73
2023/09/22 02:56:14;;;;;;;2.60;1.25;;;17.10;99.90;;;;;;2076781;28;20028;-73
2023/09/22 02:57:15;;;;;;;4.75;1.73;;;17.10;99.90;;;;;;2077646;28;20035;-72
2023/09/22 02:58:16;;;;;;;4.43;1.73;;;17.10;99.90;;;;;;2078153;28;20029;-73
2023/09/22 02:59:19;;;;;;;3.05;1.58;;;17.10;99.90;;;;;;2077250;28;20061;-73
2023/09/22 03:00:20;;;;;;;2.55;1.60;;;17.10;99.90;;;;;;2075486;28;20579;-73
2023/09/22 03:01:21;;;;;;;2.33;1.40;;;17.10;99.90;;;;;;2077091;28;20244;-74
2023/09/22 03:02:21;;;;;;;2.38;1.60;;;17.10;99.90;;;;;;2069056;28;20034;-73
2023/09/22 03:03:22;;;;;;;3.03;1.75;;;17.10;99.90;;;;;;2068809;28;20062;-73
2023/09/22 03:04:23;;;;;;;3.30;1.40;;;17.10;99.90;;;;;;2069632;28;20030;-73
2023/09/22 03:05:23;;;;;;;3.00;1.52;;;17.10;99.90;;;;;;2069471;28;20050;-73
2023/09/22 03:06:24;;;;;;;2.85;1.52;;;17.10;99.90;;;;;;2077030;28;20036;-73
2023/09/22 03:07:25;;;;;;;2.20;1.30;;;17.00;99.90;;;;;;2076431;28;20070;-73
2023/09/22 03:08:25;;;;;;;3.38;1.40;;;17.00;99.90;;;;;;2076035;28;20033;-73
2023/09/22 03:09:26;;;;;;;3.75;1.23;;;17.00;99.90;;;;;;2075648;28;20025;-73
2023/09/22 03:10:26;;;;;;;4.13;1.75;;;17.00;99.90;;;;;;2076558;28;20400;-73
2023/09/22 03:11:27;;;;;;;2.25;1.40;;;17.00;99.90;;;;;;2074795;28;20072;-73
2023/09/22 03:12:27;;;;;;;6.80;1.48;;;17.00;99.90;;;;;;2076025;28;20068;-73
2023/09/22 03:13:28;;;;;;;3.53;1.80;;;17.00;99.90;;;;;;2068232;28;20029;-73
2023/09/22 03:14:29;;;;;;;3.70;1.48;;;17.10;99.90;;;;;;2068494;28;20110;-73
2023/09/22 03:15:29;;;;;;;3.00;1.63;;;17.00;99.90;;;;;;2078436;28;20385;-73
2023/09/22 03:16:31;;;;;;;2.03;1.63;;;17.00;99.90;;;;;;2068292;28;20048;-73
2023/09/22 03:17:32;;;;;;;4.50;1.40;;;17.10;99.90;;;;;;2068487;28;20025;-73
2023/09/22 03:18:32;;;;;;;3.53;1.50;;;17.10;99.90;;;;;;2076217;28;20061;-73
2023/09/22 03:19:33;;;;;;;3.00;1.80;;;17.10;99.90;;;;;;2079301;28;20082;-73
2023/09/22 03:20:34;;;;;;;2.58;1.33;;;17.10;99.90;;;;;;2076470;28;20100;-73
2023/09/22 03:21:35;;;;;;;2.35;1.50;;;17.10;99.90;;;;;;2075708;28;20539;-73
2023/09/22 03:22:36;;;;;;;3.00;1.60;;;17.10;99.90;;;;;;2074864;28;20624;-73
2023/09/22 03:23:37;;;;;;;3.65;1.60;;;17.10;99.90;;;;;;2067263;28;20029;-72
2023/09/22 03:24:37;;;;;;;2.95;1.30;;;17.10;99.90;;;;;;2065810;28;20084;-73
2023/09/22 03:25:38;;;;;;;1.55;1.33;;;17.10;99.90;;;;;;2077979;28;20063;-73
2023/09/22 03:26:38;;;;;;;3.33;1.55;;;17.10;99.90;;;;;;2076921;28;20101;-72
2023/09/22 03:27:39;;;;;;;1.95;1.40;;;17.10;99.90;;;;;;2067581;28;20022;-72
2023/09/22 03:28:40;;;;;;;2.53;1.38;;;17.10;99.90;;;;;;2066928;28;20034;-72
2023/09/22 03:29:41;;;;;;;4.40;1.40;;;17.10;99.90;;;;;;2077413;28;20023;-72
2023/09/22 03:30:41;;;;;;;1.65;1.35;;;17.10;99.90;;;;;;2076137;28;20108;-72
2023/09/22 03:31:42;;;;;;;4.03;1.52;;;17.10;99.90;;;;;;2069165;28;20030;-72
2023/09/22 03:32:43;;;;;;;2.15;1.40;;;17.10;99.90;;;;;;2069563;28;20025;-72
2023/09/22 03:33:46;;;;;;;1.40;1.05;;;17.10;99.90;;;;;;2075301;28;20026;-72
2023/09/22 03:34:49;;;;;;;3.15;1.42;;;17.10;99.90;;;;;;2066836;28;20535;-72
2023/09/22 03:35:50;;;;;;;3.38;1.45;;;17.10;99.90;;;;;;2068387;28;20030;-73
2023/09/22 03:36:51;;;;;;;3.08;1.60;;;17.10;99.90;;;;;;2076572;28;20114;-73
2023/09/22 03:37:52;;;;;;;2.90;1.55;;;17.00;99.90;;;;;;2076748;28;20037;-72
2023/09/22 03:38:52;;;;;;;3.50;1.60;;;17.00;99.90;;;;;;2077182;28;20510;-72
2023/09/22 03:39:56;;;;;;;3.03;1.60;;;17.00;99.90;;;;;;2075861;28;21077;-72
2023/09/22 03:41:00;;;;;;;3.42;1.70;;;17.10;99.90;;;;;;2076293;28;20660;-72
2023/09/22 03:42:01;;;;;;;1.67;1.27;;;17.00;99.90;;;;;;2076810;28;20052;-73
2023/09/22 03:43:03;;;;;;;3.00;1.52;;;17.00;99.90;;;;;;2076587;28;20079;-73
2023/09/22 03:44:04;;;;;;;4.57;1.60;;;17.00;99.90;;;;;;2075684;28;20053;-72
2023/09/22 03:45:07;;;;;;;3.55;1.63;;;17.00;99.90;;;;;;2076045;28;20022;-72
2023/09/22 03:46:08;;;;;;;2.63;1.50;;;16.90;99.90;;;;;;2076441;28;20021;-72
2023/09/22 03:47:08;;;;;;;5.78;1.80;;;16.90;99.90;;;;;;2076797;28;20152;-73
2023/09/22 03:48:09;;;;;;;2.08;1.52;;;16.90;99.90;;;;;;2068912;28;20403;-72
2023/09/22 03:49:09;;;;;;;1.85;1.60;;;16.90;99.90;;;;;;2058611;28;20084;-72
2023/09/22 03:50:10;;;;;;;4.90;1.80;;;16.90;99.90;;;;;;2067191;28;20551;-72
2023/09/22 03:51:11;;;;;;;2.85;1.60;;;16.90;99.90;;;;;;2076608;28;20026;-73
2023/09/22 03:52:12;;;;;;;3.72;2.10;;;16.80;99.90;;;;;;2077792;28;20574;-72
2023/09/22 03:53:13;;;;;;;6.82;1.83;;;16.80;99.90;;;;;;2076048;28;20033;-72
2023/09/22 03:54:14;;;;;;;2.97;1.63;;;16.80;99.90;;;;;;2075021;28;20120;-72
2023/09/22 03:55:15;;;;;;;3.13;1.92;;;16.80;99.90;;;;;;2078193;28;20496;-72
2023/09/22 03:56:15;;;;;;;2.88;1.50;;;16.80;99.90;;;;;;2076865;28;20496;-72
2023/09/22 03:57:16;;;;;;;4.18;1.80;;;16.80;99.90;;;;;;2076291;28;20388;-72
2023/09/22 03:58:17;;;;;;;2.00;1.70;;;16.80;99.90;;;;;;2076844;28;20030;-72
2023/09/22 03:59:17;;;;;;;4.18;1.88;;;16.80;99.90;;;;;;2076397;28;20093;-72
2023/09/22 04:00:19;;;;;;;4.25;1.92;;;16.70;99.90;;;;;;2076626;28;20034;-72
2023/09/22 04:01:20;;;;;;;4.32;1.98;;;16.70;99.90;;;;;;2075663;28;20068;-72
2023/09/22 04:02:20;;;;;;;3.38;1.80;;;16.70;99.90;;;;;;2076077;28;20041;-72
2023/09/22 04:03:21;;;;;;;1.38;1.27;;;16.70;99.90;;;;;;2075439;28;20393;-73
2023/09/22 04:04:21;;;;;;;5.45;1.42;;;16.70;99.90;;;;;;2076486;28;20068;-72
2023/09/22 04:05:22;;;;;;;1.85;1.60;;;16.60;99.90;;;;;;2077816;28;20030;-72
2023/09/22 04:06:23;;;;;;;1.45;1.23;;;16.60;99.90;;;;;;2076222;28;20033;-73
2023/09/22 04:07:24;;;;;;;1.73;1.50;;;16.60;99.90;;;;;;2076644;28;20029;-72
2023/09/22 04:08:25;;;;;;;2.42;1.17;;;16.60;99.90;;;;;;2076788;28;20099;-72
2023/09/22 04:09:25;;;;;;;2.17;1.30;;;16.60;99.90;;;;;;2076685;28;20084;-73
2023/09/22 04:10:26;;;;;;;2.05;1.23;;;16.60;99.90;;;;;;2075855;28;20037;-72
2023/09/22 04:11:27;;;;;;;3.22;1.67;;;16.60;99.90;;;;;;2075794;28;20464;-72
2023/09/22 04:12:27;;;;;;;5.55;1.67;;;16.60;99.90;;;;;;2076901;28;20636;-72
2023/09/22 04:13:28;;;;;;;2.33;1.30;;;16.50;99.90;;;;;;2075519;28;20029;-72
2023/09/22 04:14:29;;;;;;;1.88;1.10;;;16.60;99.90;;;;;;2076878;28;20033;-73
2023/09/22 04:15:30;;;;;;;2.53;1.30;;;16.50;99.90;;;;;;2074982;28;20022;-72
2023/09/22 04:16:31;;;;;;;2.58;1.20;;;16.50;99.90;;;;;;2076937;28;21044;-73
2023/09/22 04:17:32;;;;;;;2.83;1.73;;;16.50;99.90;;;;;;2076714;28;20055;-72
2023/09/22 04:18:33;;;;;;;4.05;2.00;;;16.50;99.90;;;;;;2066401;28;20077;-72
2023/09/22 04:19:33;;;;;;;2.83;1.05;;;16.50;99.90;;;;;;2067678;28;20124;-72
2023/09/22 04:20:37;;;;;;;2.03;1.48;;;16.50;99.90;;;;;;2075173;28;20030;-72
2023/09/22 04:21:42;;;;;;;4.05;1.67;;;16.50;99.90;;;;;;2075665;28;20021;-72
2023/09/22 04:22:43;;;;;;;2.70;1.77;;;16.50;99.90;;;;;;2074823;28;20034;-72
2023/09/22 04:23:50;;;;;;;3.40;1.27;;;16.50;99.90;;;;;;2065838;28;20025;-73
2023/09/22 04:24:59;;;;;;;3.17;1.38;;;16.50;99.90;;;;;;2068462;28;20067;-72
2023/09/22 04:26:02;;;;;;;2.13;1.35;;;16.40;99.90;;;;;;2075108;28;20018;-72
2023/09/22 04:27:06;;;;;;;2.78;1.30;;;16.40;99.90;;;;;;2075005;28;20357;-72
2023/09/22 04:28:11;;;;;;;2.53;1.50;;;16.30;99.90;;;;;;2074930;28;20041;-72
2023/09/22 04:29:12;;;;;;;2.03;1.40;;;16.40;99.90;;;;;;2076497;28;20498;-72
2023/09/22 04:30:16;;;;;;;3.42;1.60;;;16.30;99.90;;;;;;2074873;28;20034;-72
2023/09/22 04:31:16;;;;;;;1.85;1.25;;;16.30;99.90;;;;;;2076041;28;20088;-72
2023/09/22 04:32:18;;;;;;;2.15;1.10;;;16.30;99.90;;;;;;2074514;28;20033;-72
2023/09/22 04:33:20;;;;;;;1.42;1.00;;;16.30;99.90;;;;;;2075998;28;20118;-73
2023/09/22 04:34:20;;;;;;;3.38;1.60;;;16.30;99.90;;;;;;2078482;28;20022;-72
2023/09/22 04:35:21;;;;;;;1.45;1.13;;;16.30;99.90;;;;;;2074278;28;20038;-72
2023/09/22 04:36:22;;;;;;;3.35;1.35;;;16.30;99.90;;;;;;2074739;28;20042;-72
2023/09/22 04:37:23;;;;;;;8.25;2.03;;;16.30;99.90;;;;;;2076005;28;20035;-72
2023/09/22 04:38:24;;;;;;;1.70;1.25;;;16.30;99.90;;;;;;2077394;28;20025;-72
2023/09/22 04:39:24;;;;;;;5.90;1.48;;;16.30;99.90;;;;;;2076290;28;20040;-72
2023/09/22 04:40:29;;;;;;;2.55;1.40;;;16.30;99.90;;;;;;2076009;28;20065;-72
2023/09/22 04:41:30;;;;;;;2.65;1.38;;;16.30;99.90;;;;;;2075478;28;20025;-72
2023/09/22 04:42:30;;;;;;;2.40;1.17;;;16.30;99.90;;;;;;2066542;28;20154;-72
2023/09/22 04:43:31;;;;;;;3.42;1.10;;;16.30;99.90;;;;;;2066323;28;20025;-72
2023/09/22 04:44:32;;;;;;;5.20;1.38;;;16.30;99.90;;;;;;2074474;28;20124;-72
2023/09/22 04:45:37;;;;;;;2.85;1.67;;;16.30;99.90;;;;;;2075676;28;20362;-72
2023/09/22 04:46:38;;;;;;;1.85;1.23;;;16.30;99.90;;;;;;2075293;28;20022;-72
2023/09/22 04:47:39;;;;;;;3.30;1.40;;;16.30;99.90;;;;;;2077271;28;20026;-72
2023/09/22 04:48:40;;;;;;;1.45;1.00;;;16.30;99.90;;;;;;2076025;28;20026;-72
2023/09/22 04:49:40;;;;;;;3.75;1.58;;;16.30;99.90;;;;;;2075915;28;20026;-72
2023/09/22 04:50:42;;;;;;;2.88;1.13;;;16.20;99.90;;;;;;2076972;28;20017;-72
2023/09/22 04:51:43;;;;;;;2.00;1.25;;;16.20;99.90;;;;;;2076139;28;20034;-72
2023/09/22 04:52:45;;;;;;;3.05;1.20;;;16.20;99.90;;;;;;2078459;28;20507;-72
2023/09/22 04:53:45;;;;;;;3.60;1.30;;;16.20;99.90;;;;;;2068045;28;20077;-73
2023/09/22 04:54:46;;;;;;;2.50;1.55;;;16.20;99.90;;;;;;2067616;28;20033;-72
2023/09/22 04:55:48;;;;;;;2.35;1.58;;;16.20;99.90;;;;;;2077941;28;20040;-71
2023/09/22 04:56:48;;;;;;;1.85;1.10;;;16.20;99.90;;;;;;2076591;28;20025;-72
2023/09/22 04:57:49;;;;;;;1.95;1.30;;;16.20;99.90;;;;;;2078228;28;20032;-72
2023/09/22 04:58:53;;;;;;;1.75;1.10;;;16.20;99.90;;;;;;2077150;28;20079;-72
2023/09/22 04:59:54;;;;;;;2.53;1.13;;;16.20;99.90;;;;;;2078893;28;20032;-72
2023/09/22 05:00:55;;;;;;;2.88;1.45;;;16.20;99.90;;;;;;2077565;28;20026;-72
2023/09/22 05:01:59;;;;;;;5.88;1.90;;;16.20;99.90;;;;;;2078753;28;20103;-72
2023/09/22 05:03:04;;;;;;;2.38;1.65;;;16.20;99.90;;;;;;2069896;28;20038;-72
2023/09/22 05:04:05;;;;;;;3.25;1.30;;;16.20;99.90;;;;;;2070388;28;20028;-72
2023/09/22 05:05:06;;;;;;;2.35;1.45;;;16.30;99.90;;;;;;2073174;28;20436;-72
2023/09/22 05:06:09;;;;;;;2.30;1.25;;;16.30;99.90;;;;;;2071730;28;20022;-72
2023/09/22 05:07:11;;;;;;;2.92;1.63;;;16.30;99.90;;;;;;2077769;28;20032;-72
2023/09/22 05:08:12;;;;;;;1.73;0.90;;;16.30;99.90;;;;;;2077793;28;20024;-72
2023/09/22 05:09:12;;;;;;;1.02;0.98;;;16.30;99.90;;;;;;2078521;28;20030;-72
2023/09/22 05:10:13;;;;;;;2.30;0.93;;;16.30;99.90;;;;;;2078924;28;20362;-72
2023/09/22 05:11:14;;;;;;;5.95;1.30;;;16.30;99.90;;;;;;2077351;28;20029;-72
2023/09/22 05:12:14;;;;;;;2.63;1.25;;;16.20;99.90;;;;;;2076646;28;20500;-72
2023/09/22 05:13:18;;;;;;;1.38;1.10;;;16.30;99.90;;;;;;2077313;28;21149;-72
2023/09/22 05:14:19;;;;;;;2.58;0.93;;;16.30;99.90;;;;;;2075127;28;20116;-72
2023/09/22 05:15:20;;;;;;;3.03;1.30;;;16.30;99.90;;;;;;2078050;28;20033;-72
2023/09/22 05:16:21;;;;;;;3.15;1.23;;;16.30;99.90;;;;;;2067686;28;20061;-72
2023/09/22 05:17:22;;;;;;;4.97;1.25;;;16.30;99.90;;;;;;2066107;28;20488;-72
2023/09/22 05:18:23;;;;;;;3.22;1.13;;;16.30;99.90;;;;;;2079429;28;20029;-72